KMTN/MTN METAR and TAF weather

Enter ICAO airport designator
Station Type Date Time Source
KMTN METAR 2021/09/28 03:35 UTC NOAA

KMTN 280335Z AUTO 18003KT 10SM CLR 21/14 A2993 RMK AO2


Station Type Date Time Source
KMTN Decoded METAR 2021/09/28 03:35 UTC NOAA

Baltimore / Martin, MD, United States (KMTN) 39-20N 076-25W
Sep 27, 2021 - 11:35 PM EDT / 2021.09.28 0335 UTC
Wind: from the S (180 degrees) at 3 MPH (3 KT):0
Visibility: 10 mile(s):0
Sky conditions: clear
Temperature: 69 F (21 C)
Dew Point: 57 F (14 C)
Relative Humidity: 64%
Pressure (altimeter): 29.93 in. Hg (1013 hPa)
ob: KMTN 280335Z AUTO 18003KT 10SM CLR 21/14 A2993 RMK AO2
cycle: 3

Station Type Date Time Source
KMTN TAF 2021/09/27 22:40 UTC NOAA

TAF
AMD KMTN 272137Z 2722/2818 14013KT P6SM SKC
FM281100 25007KT P6SM BKN090
FM281600 25007KT P6SM BKN035

Example: see airport list